createdAt,value
2018-03-22T00:20:41.341Z,10.53
2018-03-22T00:23:09.462Z,11.60
2018-03-22T00:25:37.636Z,8.80
2018-03-22T00:28:05.735Z,7.90
2018-03-22T00:30:34.628Z,7.17
2018-03-22T00:33:02.791Z,7.97
2018-03-22T00:35:31.656Z,9.23
2018-03-22T00:37:59.776Z,9.43
2018-03-22T00:40:29.775Z,11.80
2018-03-22T00:43:01.611Z,11.83
2018-03-22T00:45:29.699Z,9.80
2018-03-22T00:47:57.816Z,6.60
2018-03-22T00:50:25.909Z,7.87
2018-03-22T00:52:54.771Z,7.90
2018-03-22T00:55:23.619Z,7.77
2018-03-22T00:57:51.750Z,6.97
2018-03-22T01:00:19.869Z,7.87
2018-03-22T01:02:47.984Z,13.60
2018-03-22T01:05:16.872Z,7.77
2018-03-22T01:07:45.027Z,8.17
2018-03-22T01:10:13.177Z,9.13
2018-03-22T01:12:43.934Z,9.10
2018-03-22T01:15:12.077Z,9.63
2018-03-22T01:17:40.159Z,7.10
2018-03-22T01:20:08.276Z,8.50
2018-03-22T01:22:36.407Z,10.60
2018-03-22T01:25:04.688Z,10.27
2018-03-22T01:27:32.775Z,13.37
2018-03-22T01:30:00.880Z,7.73
2018-03-22T01:32:29.086Z,6.73
2018-03-22T01:34:58.212Z,9.03
2018-03-22T01:37:26.331Z,10.97
2018-03-22T01:39:54.456Z,8.80
2018-03-22T01:42:22.587Z,8.60
2018-03-22T01:44:50.728Z,8.53
2018-03-22T01:47:18.908Z,9.13
2018-03-22T01:49:47.027Z,9.87
2018-03-22T01:52:15.128Z,12.03
2018-03-22T01:54:43.256Z,12.07
2018-03-22T01:57:11.433Z,13.63
2018-03-22T01:59:39.599Z,12.90
2018-03-22T02:02:07.709Z,13.93
2018-03-22T02:04:35.817Z,12.03
2018-03-22T02:07:03.922Z,12.80
2018-03-22T02:09:32.939Z,12.73
2018-03-22T02:12:02.849Z,11.87
2018-03-22T02:14:30.967Z,13.43
2018-03-22T02:16:59.110Z,17.00
2018-03-22T02:19:28.000Z,16.73
2018-03-22T02:21:56.994Z,15.97
2018-03-22T02:24:25.088Z,15.40
2018-03-22T02:26:53.218Z,15.87
2018-03-22T02:29:21.832Z,17.67
2018-03-22T02:31:50.016Z,18.13
2018-03-22T02:34:18.123Z,18.13
2018-03-22T02:36:46.277Z,19.73
2018-03-22T02:39:14.422Z,16.20
2018-03-22T02:41:42.597Z,16.20
2018-03-22T02:44:10.686Z,15.67
2018-03-22T02:46:38.794Z,20.23
2018-03-22T02:49:06.968Z,19.33
2018-03-22T02:51:35.215Z,19.23
2018-03-22T02:54:03.321Z,29.90
2018-03-22T02:56:32.212Z,21.67
2018-03-22T02:59:00.309Z,21.90
2018-03-22T03:01:29.203Z,25.13
2018-03-22T03:03:57.361Z,23.43
2018-03-22T03:06:25.809Z,23.63
2018-03-22T03:08:54.700Z,25.47
2018-03-22T03:11:23.594Z,21.40
2018-03-22T03:13:51.703Z,21.80
2018-03-22T03:16:19.878Z,24.90
2018-03-22T03:18:48.025Z,23.37
2018-03-22T03:21:16.171Z,21.17
2018-03-22T03:23:44.309Z,21.43
2018-03-22T03:26:12.480Z,23.40
2018-03-22T03:28:40.588Z,22.30
2018-03-22T03:31:09.500Z,21.43
2018-03-22T03:33:37.639Z,22.47
2018-03-22T03:36:05.826Z,19.63
2018-03-22T03:38:33.926Z,24.00
2018-03-22T03:41:02.060Z,21.50
2018-03-22T03:43:30.142Z,19.33
2018-03-22T03:45:58.307Z,22.90
2018-03-22T03:48:27.223Z,23.37
2018-03-22T03:50:55.376Z,24.67
2018-03-22T03:53:23.527Z,23.40
2018-03-22T03:55:51.640Z,25.30
2018-03-22T03:58:19.773Z,22.43
2018-03-22T04:00:47.929Z,25.50
2018-03-22T04:03:16.848Z,25.40
2018-03-22T04:05:45.065Z,25.80
2018-03-22T04:08:13.199Z,27.80
2018-03-22T04:10:42.112Z,27.77
2018-03-22T04:13:10.253Z,28.30
2018-03-22T04:15:38.399Z,25.47
2018-03-22T04:18:16.274Z,27.13
2018-03-22T04:20:44.847Z,26.20
2018-03-22T04:23:12.998Z,21.27
2018-03-22T04:25:41.227Z,28.47
2018-03-22T04:28:09.325Z,26.33
2018-03-22T04:30:37.436Z,25.13
2018-03-22T04:33:06.307Z,25.50
2018-03-22T04:35:34.457Z,28.00
2018-03-22T04:38:02.595Z,27.53
2018-03-22T04:40:30.756Z,28.40
2018-03-22T04:42:58.908Z,32.43
2018-03-22T04:45:27.098Z,31.77
2018-03-22T04:47:55.202Z,37.03
2018-03-22T04:50:23.339Z,34.17
2018-03-22T04:52:51.485Z,31.40
2018-03-22T04:55:19.613Z,28.67
2018-03-22T04:57:47.707Z,34.17
2018-03-22T05:00:15.860Z,30.97
2018-03-22T05:02:43.977Z,31.67
2018-03-22T05:05:12.409Z,29.57
2018-03-22T05:07:46.088Z,30.23
2018-03-22T05:10:15.166Z,30.27
2018-03-22T05:12:44.289Z,28.90
2018-03-22T05:15:13.244Z,30.20
2018-03-22T05:17:41.319Z,33.63
2018-03-22T05:20:09.486Z,31.67
2018-03-22T05:22:40.411Z,32.27
2018-03-22T05:25:08.697Z,32.10
2018-03-22T05:27:36.797Z,29.57
2018-03-22T05:30:14.848Z,29.50
2018-03-22T05:32:43.773Z,37.00
2018-03-22T05:35:12.652Z,31.70
2018-03-22T05:37:41.264Z,32.13
2018-03-22T05:40:09.371Z,32.43
2018-03-22T05:42:44.146Z,33.33
2018-03-22T05:45:12.283Z,35.27
2018-03-22T05:47:40.393Z,35.90
2018-03-22T05:50:09.277Z,36.80
2018-03-22T05:52:37.493Z,35.23
2018-03-22T05:55:12.078Z,37.90
2018-03-22T05:57:40.183Z,32.43
2018-03-22T06:00:08.308Z,30.80
2018-03-22T06:02:36.426Z,32.13
2018-03-22T06:05:07.315Z,32.00
2018-03-22T06:07:35.465Z,31.27
2018-03-22T06:10:03.600Z,32.03
2018-03-22T06:12:31.882Z,26.37
2018-03-22T06:15:00.025Z,29.40
2018-03-22T06:17:36.064Z,25.30
2018-03-22T06:20:04.347Z,30.17
2018-03-22T06:22:32.531Z,26.40
2018-03-22T06:25:00.687Z,28.77
2018-03-22T06:27:28.825Z,30.00
2018-03-22T06:29:56.943Z,27.03
2018-03-22T06:32:25.156Z,26.47
2018-03-22T06:34:53.369Z,21.13
2018-03-22T06:37:21.556Z,24.83
2018-03-22T06:39:50.152Z,26.83
2018-03-22T06:42:19.393Z,27.93
2018-03-22T06:44:47.902Z,20.50
2018-03-22T06:47:16.067Z,20.30
2018-03-22T06:52:55.407Z,22.57
2018-03-22T06:55:23.521Z,25.10
2018-03-22T06:57:51.752Z,20.87
2018-03-22T07:00:20.285Z,19.87
2018-03-22T07:02:48.429Z,18.70
2018-03-22T07:05:16.627Z,18.13
2018-03-22T07:07:47.996Z,21.17
2018-03-22T07:10:17.837Z,19.60
2018-03-22T07:12:46.214Z,20.30
2018-03-22T07:15:14.713Z,17.70
2018-03-22T07:17:43.765Z,16.70
2018-03-22T07:20:11.881Z,16.13
2018-03-22T07:22:40.133Z,18.23
2018-03-22T07:25:08.612Z,16.93
2018-03-22T07:27:37.482Z,15.93
2018-03-22T07:30:05.732Z,16.80
2018-03-22T07:32:33.890Z,14.00
2018-03-22T07:35:02.125Z,14.97
2018-03-22T07:37:31.673Z,14.60
2018-03-22T07:39:59.869Z,13.70
2018-03-22T07:42:28.286Z,12.63
2018-03-22T07:47:35.927Z,14.63
2018-03-22T07:50:22.923Z,12.67
2018-03-22T07:52:51.033Z,13.93
2018-03-22T07:55:22.677Z,11.90
2018-03-22T07:57:50.877Z,12.57
2018-03-22T08:00:21.924Z,14.53
2018-03-22T08:02:50.935Z,12.27
2018-03-22T08:05:19.076Z,14.37
2018-03-22T08:07:47.350Z,14.07
2018-03-22T08:10:15.608Z,14.90
2018-03-22T08:12:43.701Z,13.30
2018-03-22T08:15:12.464Z,10.87
2018-03-22T08:17:40.685Z,13.70
2018-03-22T08:20:08.813Z,11.97
2018-03-22T08:22:36.934Z,13.93
2018-03-22T08:25:05.064Z,14.93
2018-03-22T08:27:34.054Z,13.90
2018-03-22T08:30:02.337Z,14.17
2018-03-22T08:32:30.783Z,14.47
2018-03-22T08:35:00.718Z,14.77
2018-03-22T08:37:29.903Z,17.10
2018-03-22T08:39:58.846Z,16.50
2018-03-22T08:42:27.897Z,13.33
2018-03-22T08:44:56.393Z,13.17
2018-03-22T08:47:25.402Z,12.63
2018-03-22T08:49:53.586Z,12.60
2018-03-22T08:52:21.762Z,12.97
2018-03-22T08:54:52.900Z,14.07
2018-03-22T08:57:21.073Z,17.57
2018-03-22T08:59:49.286Z,15.27
2018-03-22T09:02:17.656Z,14.47
2018-03-22T09:04:45.867Z,17.20
2018-03-22T09:07:14.073Z,12.10
2018-03-22T09:09:43.157Z,11.83
2018-03-22T09:12:11.305Z,17.70
2018-03-22T09:14:39.498Z,16.90
2018-03-22T09:17:07.814Z,13.23
2018-03-22T09:19:36.476Z,14.10
2018-03-22T09:22:04.691Z,14.97
2018-03-22T09:24:32.801Z,13.80
2018-03-22T09:27:06.164Z,14.67
2018-03-22T09:29:34.768Z,17.23
2018-03-22T09:32:02.979Z,14.23
2018-03-22T09:34:31.176Z,12.83
2018-03-22T09:36:59.448Z,13.27
2018-03-22T09:39:28.429Z,15.73
2018-03-22T09:41:56.686Z,13.67
2018-03-22T09:44:24.865Z,11.20
2018-03-22T09:46:52.993Z,14.03
2018-03-22T09:49:21.133Z,11.87
2018-03-22T09:51:49.340Z,11.17
2018-03-22T09:54:17.830Z,15.57
2018-03-22T09:56:46.054Z,10.37
2018-03-22T09:59:14.660Z,12.40
2018-03-22T10:01:42.840Z,11.50
2018-03-22T10:04:11.249Z,13.83
2018-03-22T10:06:40.300Z,11.20
2018-03-22T10:09:08.773Z,8.50
2018-03-22T10:11:37.683Z,9.80
2018-03-22T10:14:06.004Z,10.37
2018-03-22T10:16:37.328Z,14.03
2018-03-22T10:19:05.569Z,9.03
2018-03-22T10:21:38.133Z,8.33
2018-03-22T10:24:07.275Z,13.13
2018-03-22T10:26:35.368Z,9.63
2018-03-22T10:29:03.668Z,10.40
2018-03-22T10:31:32.603Z,9.20
2018-03-22T10:34:01.011Z,11.90
2018-03-22T10:36:30.209Z,10.10
2018-03-22T10:38:58.424Z,15.73
2018-03-22T10:41:26.520Z,8.63
2018-03-22T10:43:54.685Z,9.20
2018-03-22T10:46:22.850Z,10.50
2018-03-22T10:48:51.088Z,8.63
2018-03-22T10:51:25.759Z,10.00
2018-03-22T10:53:53.900Z,8.80
2018-03-22T10:56:32.491Z,8.70
2018-03-22T10:59:03.251Z,7.13
2018-03-22T11:01:36.918Z,8.03
2018-03-22T11:04:10.016Z,5.73
2018-03-22T11:06:38.301Z,4.47
2018-03-22T11:09:06.522Z,6.40
2018-03-22T11:11:35.315Z,5.93
2018-03-22T11:14:03.489Z,8.80
2018-03-22T11:16:31.781Z,5.57
2018-03-22T11:19:00.733Z,4.40
2018-03-22T11:21:28.883Z,4.13
2018-03-22T11:23:57.090Z,4.50
2018-03-22T11:26:26.186Z,5.30
2018-03-22T11:28:54.804Z,3.60
2018-03-22T11:31:23.189Z,3.70
2018-03-22T11:33:55.016Z,3.37
2018-03-22T11:36:24.440Z,3.70
2018-03-22T11:39:21.297Z,3.20
2018-03-22T11:41:50.715Z,2.00
2018-03-22T11:44:18.882Z,2.20
2018-03-22T11:46:51.129Z,1.50
2018-03-22T11:49:20.146Z,1.60
2018-03-22T11:51:53.418Z,2.77
2018-03-22T11:54:22.472Z,2.43
2018-03-22T11:56:51.600Z,3.10
2018-03-22T11:59:20.975Z,2.80
2018-03-22T12:01:51.315Z,2.30
2018-03-22T12:04:21.030Z,3.43
2018-03-22T12:06:50.179Z,1.70
2018-03-22T12:09:22.810Z,1.63
2018-03-22T12:11:56.885Z,2.20
2018-03-22T12:14:35.396Z,2.27
2018-03-22T12:17:03.663Z,2.37
2018-03-22T12:19:41.951Z,2.37
2018-03-22T12:22:13.064Z,2.40
2018-03-22T12:24:41.220Z,1.50
2018-03-22T12:27:11.459Z,2.10
2018-03-22T12:29:56.201Z,2.33
2018-03-22T12:32:24.880Z,4.33
2018-03-22T12:34:52.943Z,2.60
2018-03-22T12:37:21.085Z,2.60
2018-03-22T12:39:49.283Z,2.63
2018-03-22T12:42:20.229Z,2.43
2018-03-22T12:44:49.273Z,2.40
2018-03-22T12:47:20.398Z,5.63
2018-03-22T12:49:48.500Z,3.40
2018-03-22T12:52:20.724Z,2.30
2018-03-22T12:54:48.936Z,3.37
2018-03-22T12:57:17.132Z,3.23
2018-03-22T12:59:49.339Z,4.67
2018-03-22T13:02:18.285Z,4.13
2018-03-22T13:04:47.017Z,3.17
2018-03-22T13:07:16.087Z,2.70
2018-03-22T13:09:45.156Z,2.90
2018-03-22T13:12:13.319Z,5.03
2018-03-22T13:14:42.438Z,3.70
2018-03-22T13:17:10.909Z,4.10
2018-03-22T13:19:39.729Z,4.10
2018-03-22T13:22:07.815Z,5.27
2018-03-22T13:24:36.491Z,3.53
2018-03-22T13:27:04.726Z,5.10
2018-03-22T13:29:32.919Z,4.27
2018-03-22T13:32:02.684Z,2.93
2018-03-22T13:34:30.793Z,9.53
2018-03-22T13:36:58.931Z,3.03
2018-03-22T13:39:27.071Z,3.13
2018-03-22T13:41:55.196Z,3.30
2018-03-22T13:44:23.386Z,2.90
2018-03-22T13:46:52.696Z,3.20
2018-03-22T13:49:20.878Z,3.53
2018-03-22T13:51:49.016Z,4.43
2018-03-22T13:54:23.199Z,2.60
2018-03-22T13:56:51.475Z,3.97
2018-03-22T13:59:20.678Z,3.10
2018-03-22T14:01:49.768Z,4.83
2018-03-22T14:04:24.555Z,3.43
2018-03-22T14:06:53.873Z,2.83
2018-03-22T14:09:22.217Z,4.00
2018-03-22T14:11:56.202Z,3.80
2018-03-22T14:14:25.543Z,4.13
2018-03-22T14:16:53.855Z,3.67
2018-03-22T14:19:23.507Z,3.90
2018-03-22T14:21:51.857Z,3.23
2018-03-22T14:24:21.155Z,2.77
2018-03-22T14:26:49.313Z,3.37
2018-03-22T14:29:17.474Z,3.63
2018-03-22T14:31:45.588Z,3.67
2018-03-22T14:34:13.730Z,2.63
2018-03-22T14:36:41.987Z,3.40
2018-03-22T14:39:10.554Z,4.20
2018-03-22T14:41:38.897Z,4.90
2018-03-22T14:44:07.511Z,3.40
2018-03-22T14:46:35.597Z,5.30
2018-03-22T14:49:03.790Z,4.57
2018-03-22T14:51:32.036Z,3.43
2018-03-22T14:54:00.311Z,5.03
2018-03-22T14:56:29.274Z,3.60
2018-03-22T14:59:02.820Z,3.90
2018-03-22T15:01:30.974Z,3.80
2018-03-22T15:03:59.157Z,4.30
2018-03-22T15:09:23.079Z,3.13
2018-03-22T15:11:52.034Z,4.63
2018-03-22T15:14:24.740Z,3.90
2018-03-22T15:16:53.046Z,3.47
2018-03-22T15:19:21.152Z,2.40
2018-03-22T15:21:51.599Z,3.43
2018-03-22T15:24:19.755Z,3.63
2018-03-22T15:26:47.896Z,4.00
2018-03-22T15:29:16.047Z,3.13
2018-03-22T15:31:44.143Z,3.63
2018-03-22T15:34:12.305Z,2.53
2018-03-22T15:36:40.786Z,3.80
2018-03-22T15:39:09.567Z,2.90
2018-03-22T15:41:37.691Z,3.27
2018-03-22T15:44:06.934Z,3.40
2018-03-22T15:46:40.614Z,3.83
2018-03-22T15:49:08.742Z,4.20
2018-03-22T15:51:37.679Z,4.80
2018-03-22T15:54:10.153Z,6.10
2018-03-22T15:56:38.277Z,3.60
2018-03-22T15:59:07.343Z,4.07
2018-03-22T16:01:36.382Z,5.60
2018-03-22T16:04:04.663Z,4.30
2018-03-22T16:06:32.881Z,5.63
2018-03-22T16:09:01.138Z,4.40
2018-03-22T16:11:29.347Z,3.93
2018-03-22T16:13:57.429Z,4.60
2018-03-22T16:16:25.545Z,4.50
2018-03-22T16:18:53.674Z,4.30
2018-03-22T16:21:21.998Z,4.50
2018-03-22T16:23:50.211Z,4.30
2018-03-22T16:26:18.375Z,6.13
2018-03-22T16:28:46.468Z,4.20
2018-03-22T16:31:14.821Z,6.03
2018-03-22T16:33:42.913Z,8.83
2018-03-22T16:36:11.632Z,4.87
2018-03-22T16:38:39.756Z,7.20
2018-03-22T16:41:09.858Z,5.00
2018-03-22T16:43:37.998Z,4.87
2018-03-22T16:46:06.196Z,5.10
2018-03-22T16:48:34.296Z,5.90
2018-03-22T16:51:02.409Z,5.27
2018-03-22T16:53:30.529Z,5.30
2018-03-22T16:55:58.987Z,4.33
2018-03-22T16:58:28.597Z,5.00
2018-03-22T17:00:57.780Z,5.40
2018-03-22T17:03:30.904Z,4.60
2018-03-22T17:05:59.124Z,7.53
2018-03-22T17:08:27.318Z,7.23
2018-03-22T17:10:55.541Z,5.80
2018-03-22T17:13:23.744Z,5.13
2018-03-22T17:15:51.885Z,4.90
2018-03-22T17:18:23.803Z,6.03
2018-03-22T17:20:52.177Z,6.07
2018-03-22T17:23:20.258Z,6.53
2018-03-22T17:25:48.404Z,6.53
2018-03-22T17:28:20.866Z,6.73
2018-03-22T17:30:49.008Z,6.50
2018-03-22T17:33:20.197Z,7.80
2018-03-22T17:35:51.898Z,6.30
2018-03-22T17:38:22.307Z,7.80
2018-03-22T17:40:56.180Z,7.83
2018-03-22T17:43:28.632Z,8.37
2018-03-22T17:45:56.797Z,8.50
2018-03-22T17:48:25.637Z,7.50
2018-03-22T17:50:54.049Z,11.20
2018-03-22T17:53:23.108Z,10.07
2018-03-22T17:55:51.246Z,7.53
2018-03-22T17:58:19.475Z,8.60
2018-03-22T18:00:53.912Z,8.10
2018-03-22T18:03:22.074Z,7.47
2018-03-22T18:05:50.453Z,8.90
2018-03-22T18:08:19.070Z,8.60
2018-03-22T18:10:53.982Z,9.67
2018-03-22T18:13:22.599Z,11.50
2018-03-22T18:15:50.810Z,10.00
2018-03-22T18:18:19.045Z,9.50
2018-03-22T18:20:47.189Z,9.97
2018-03-22T18:23:15.588Z,9.50
2018-03-22T18:25:44.816Z,8.97
2018-03-22T18:28:15.650Z,8.53
2018-03-22T18:30:52.772Z,10.20
2018-03-22T18:33:20.951Z,9.80
2018-03-22T18:35:49.159Z,9.10
2018-03-22T18:38:17.640Z,9.13
2018-03-22T18:40:46.056Z,10.37
2018-03-22T18:43:14.230Z,9.37
2018-03-22T18:45:42.585Z,7.33
2018-03-22T18:48:22.041Z,10.60
2018-03-22T18:51:01.070Z,6.43
2018-03-22T18:53:30.241Z,5.87
2018-03-22T18:56:09.558Z,5.83
2018-03-22T18:58:37.758Z,5.40
2018-03-22T19:04:21.718Z,6.17
2018-03-22T19:06:49.983Z,8.57
2018-03-22T19:09:18.234Z,7.03
2018-03-22T19:11:46.568Z,8.57
2018-03-22T19:14:21.544Z,7.00
2018-03-22T19:16:49.695Z,6.67
2018-03-22T19:19:20.800Z,6.37
2018-03-22T19:21:48.910Z,6.40
2018-03-22T19:24:17.238Z,7.63
2018-03-22T19:26:51.731Z,6.10
2018-03-22T19:29:23.334Z,4.97
2018-03-22T19:31:52.202Z,6.00
2018-03-22T19:34:21.310Z,5.70
2018-03-22T19:36:50.268Z,6.30
2018-03-22T19:39:19.389Z,5.87
2018-03-22T19:41:47.544Z,5.63
2018-03-22T19:44:23.181Z,6.13
2018-03-22T19:46:51.247Z,5.80
2018-03-22T19:49:19.450Z,7.43
2018-03-22T19:51:53.140Z,6.17
2018-03-22T19:54:22.500Z,5.90
2018-03-22T19:56:50.787Z,5.93
2018-03-22T19:59:18.860Z,7.90
2018-03-22T20:01:47.788Z,5.83
2018-03-22T20:04:21.875Z,4.87
2018-03-22T20:06:50.108Z,5.67
2018-03-22T20:09:18.322Z,6.67
2018-03-22T20:11:46.537Z,5.57
2018-03-22T20:14:14.620Z,5.00
2018-03-22T20:16:42.935Z,4.53
2018-03-22T20:19:11.026Z,6.20
2018-03-22T20:21:39.263Z,5.73
2018-03-22T20:24:07.424Z,4.87
2018-03-22T20:26:35.556Z,5.07
2018-03-22T20:29:03.764Z,6.40
2018-03-22T20:31:32.812Z,5.57
2018-03-22T20:34:00.978Z,5.00
2018-03-22T20:36:29.108Z,6.13
2018-03-22T20:39:04.438Z,5.40
2018-03-22T20:41:32.597Z,5.57
2018-03-22T20:44:00.759Z,4.87
2018-03-22T20:46:31.627Z,5.83
2018-03-22T20:49:00.596Z,4.43
2018-03-22T20:51:29.546Z,5.50
2018-03-22T20:53:57.695Z,5.13
2018-03-22T20:56:26.606Z,6.10
2018-03-22T21:05:00.841Z,5.80
2018-03-22T21:07:29.527Z,5.43
2018-03-22T21:10:00.062Z,5.03
2018-03-22T21:12:28.228Z,5.03
2018-03-22T21:15:04.677Z,5.10
2018-03-22T21:17:33.052Z,4.20
2018-03-22T21:20:01.846Z,5.03
2018-03-22T21:22:41.980Z,5.17
2018-03-22T21:25:10.126Z,5.33
2018-03-22T21:27:39.035Z,3.53
2018-03-22T21:30:07.141Z,4.47
2018-03-22T21:32:35.277Z,5.07
2018-03-22T21:35:03.364Z,5.33
2018-03-22T21:37:31.476Z,5.90
2018-03-22T21:39:59.571Z,6.30
2018-03-22T21:42:27.760Z,3.97
2018-03-22T21:44:57.711Z,5.13
2018-03-22T21:47:34.771Z,3.83
2018-03-22T21:50:02.915Z,4.10
2018-03-22T21:52:42.708Z,5.20
2018-03-22T21:55:10.888Z,4.90
2018-03-22T21:57:39.033Z,4.00
2018-03-22T22:02:58.092Z,3.37
2018-03-22T22:05:27.004Z,3.40
2018-03-22T22:07:59.300Z,3.80
2018-03-22T22:10:27.465Z,2.90
2018-03-22T22:12:56.561Z,3.50
2018-03-22T22:15:25.599Z,3.60
2018-03-22T22:17:53.728Z,2.90
2018-03-22T22:20:21.847Z,2.90
2018-03-22T22:22:50.810Z,4.00
2018-03-22T22:25:18.870Z,3.80
2018-03-22T22:27:47.016Z,3.60
2018-03-22T22:30:15.277Z,3.93
2018-03-22T22:32:47.061Z,4.53
2018-03-22T22:35:15.123Z,3.70
2018-03-22T22:37:43.247Z,4.10
2018-03-22T22:40:11.417Z,3.30
2018-03-22T22:42:39.589Z,3.80
2018-03-22T22:45:07.790Z,3.60
2018-03-22T22:47:35.908Z,4.23
2018-03-22T22:50:06.324Z,3.33
2018-03-22T22:52:37.693Z,3.93
2018-03-22T22:55:06.833Z,4.67
2018-03-22T22:57:34.940Z,3.17
2018-03-22T23:00:03.102Z,3.23
2018-03-22T23:02:31.269Z,3.63
2018-03-22T23:04:59.427Z,2.60
2018-03-22T23:07:27.559Z,3.90
2018-03-22T23:09:55.704Z,3.50
2018-03-22T23:12:23.807Z,3.20
2018-03-22T23:14:52.015Z,2.90
2018-03-22T23:17:21.791Z,3.10
2018-03-22T23:19:49.983Z,4.30
2018-03-22T23:22:18.084Z,3.20
2018-03-22T23:24:51.744Z,3.27
2018-03-22T23:27:19.861Z,3.07
2018-03-22T23:29:47.988Z,3.87
2018-03-22T23:32:16.507Z,4.00
2018-03-22T23:34:44.679Z,3.20
2018-03-22T23:37:12.786Z,3.23
2018-03-22T23:39:41.002Z,3.23
2018-03-22T23:42:09.164Z,4.40
2018-03-22T23:44:37.264Z,2.73
2018-03-22T23:47:05.397Z,2.93
2018-03-22T23:49:33.572Z,2.50
2018-03-22T23:52:01.683Z,3.90
2018-03-22T23:54:29.826Z,3.33
2018-03-22T23:56:58.716Z,4.30
2018-03-22T23:59:27.595Z,5.20
